• 1
  • 2
  • 1

 

 

 
NEU! ab. 1.4.
Nortel Info 128,740 MHz

WebCam

  
Kamera Halle
Kamera Vorfeld
Wetter EDDS

METAR

EDDS 230920Z 34006KT 300V020 9999 BKN032 15/07 Q1026 NOSIG =


TAF

EDDS 230500Z 2306/2406 VRB03KT 9999 SCT040 BECMG 2306/2309 32008KT BECMG 2318/2321 VRB03KT =


SR/SS

03:19 / 19:27 UTC
(EDSO 23-06-2018)